createdAt,value
2023-03-07T00:00:03.241Z,991.6
2023-03-07T00:15:02.657Z,991.5
2023-03-07T00:30:03.108Z,991.2
2023-03-07T00:45:02.525Z,991.3
2023-03-07T01:00:03.089Z,991.0
2023-03-07T01:15:02.405Z,990.8
2023-03-07T01:30:03.087Z,990.7
2023-03-07T01:45:02.335Z,990.8
2023-03-07T02:00:02.710Z,990.4
2023-03-07T02:15:03.159Z,990.3
2023-03-07T02:30:02.577Z,990.3
2023-03-07T02:45:03.095Z,990.2
2023-03-07T03:00:02.452Z,990.3
2023-03-07T03:15:03.096Z,990.0
2023-03-07T03:30:02.353Z,990.2
2023-03-07T03:45:02.823Z,990.3
2023-03-07T04:00:02.268Z,990.1
2023-03-07T04:15:02.685Z,990.2
2023-03-07T04:30:03.130Z,990.2
2023-03-07T04:45:04.722Z,990.2
2023-03-07T05:00:02.146Z,989.9
2023-03-07T05:15:02.448Z,989.7
2023-03-07T05:30:03.122Z,989.7
2023-03-07T05:45:02.320Z,989.7
2023-03-07T06:00:02.755Z,989.8
2023-03-07T06:15:03.198Z,989.6
2023-03-07T06:30:02.621Z,989.8
2023-03-07T06:45:03.139Z,989.8
2023-03-07T07:00:02.521Z,990.1
2023-03-07T07:15:03.140Z,990.2
2023-03-07T07:30:02.375Z,990.3
2023-03-07T07:45:02.831Z,990.4
2023-03-07T08:00:03.282Z,990.4
2023-03-07T08:15:02.688Z,990.4
2023-03-07T08:30:03.175Z,990.4
2023-03-07T08:45:02.603Z,990.3
2023-03-07T09:00:03.180Z,990.3
2023-03-07T09:15:02.452Z,990.4
2023-03-07T09:30:02.915Z,990.5
2023-03-07T09:45:02.392Z,990.4
2023-03-07T10:00:02.778Z,990.5
2023-03-07T10:15:03.215Z,990.5
2023-03-07T10:30:02.638Z,990.5
2023-03-07T10:45:03.185Z,990.3
2023-03-07T11:00:02.512Z,990.4
2023-03-07T11:15:03.097Z,990.3
2023-03-07T11:30:02.373Z,990.3
2023-03-07T11:45:02.785Z,990.3
2023-03-07T12:00:03.260Z,990.3
2023-03-07T12:15:02.676Z,990.4
2023-03-07T12:30:03.206Z,990.5
2023-03-07T12:45:02.567Z,990.5
2023-03-07T13:00:03.222Z,990.7
2023-03-07T13:15:02.440Z,990.6
2023-03-07T13:30:02.888Z,990.8
2023-03-07T13:45:02.329Z,990.7
2023-03-07T14:00:02.779Z,990.9
2023-03-07T14:15:03.223Z,990.9
2023-03-07T14:30:02.642Z,990.9
2023-03-07T14:45:03.232Z,990.9
2023-03-07T15:00:02.606Z,991.0
2023-03-07T15:15:02.975Z,991.5
2023-03-07T15:30:02.446Z,991.4
2023-03-07T15:45:02.851Z,991.6
2023-03-07T16:00:02.243Z,991.7
2023-03-07T16:15:02.719Z,991.8
2023-03-07T16:30:03.339Z,991.7
2023-03-07T16:45:02.575Z,991.6
2023-03-07T17:00:03.244Z,991.5
2023-03-07T17:15:03.478Z,991.8
2023-03-07T17:30:02.906Z,991.9
2023-03-07T17:45:02.344Z,992.2
2023-03-07T18:00:02.775Z,992.5
2023-03-07T18:15:03.275Z,992.6
2023-03-07T18:30:02.661Z,992.8
2023-03-07T18:45:03.278Z,993.0
2023-03-07T19:00:02.502Z,993.1
2023-03-07T19:15:03.011Z,993.2
2023-03-07T19:30:02.415Z,993.3
2023-03-07T19:45:02.874Z,993.5
2023-03-07T20:00:02.286Z,993.6
2023-03-07T20:15:02.723Z,993.7
2023-03-07T20:30:03.304Z,993.7
2023-03-07T20:45:02.626Z,993.9
2023-03-07T21:00:03.259Z,993.9
2023-03-07T21:15:02.491Z,993.8
2023-03-07T21:30:02.907Z,993.8
2023-03-07T21:45:02.337Z,994.0
2023-03-07T22:00:02.785Z,994.3
2023-03-07T22:15:03.310Z,994.3
2023-03-07T22:30:02.624Z,994.4
2023-03-07T23:00:02.514Z,994.5
2023-03-07T23:15:01.947Z,994.4
2023-03-07T23:30:02.407Z,994.5
2023-03-07T23:45:02.829Z,994.7
